createdAt,value
2016-11-21T00:00:16.308Z,5.7
2016-11-21T00:00:36.856Z,5.7
2016-11-21T00:00:57.406Z,5.7
2016-11-21T00:01:17.980Z,5.8
2016-11-21T00:01:38.560Z,5.8
2016-11-21T00:01:59.117Z,5.8
2016-11-21T00:02:19.692Z,5.8
2016-11-21T00:02:40.266Z,5.7
2016-11-21T00:03:00.819Z,5.8
2016-11-21T00:03:21.372Z,5.8
2016-11-21T00:03:41.921Z,5.7
2016-11-21T00:04:02.474Z,5.7
2016-11-21T00:04:23.020Z,5.7
2016-11-21T00:04:43.576Z,5.6
2016-11-21T00:05:04.119Z,5.6
2016-11-21T00:05:24.653Z,5.6
2016-11-21T00:05:45.196Z,5.6
2016-11-21T00:06:05.739Z,5.7
2016-11-21T00:06:26.271Z,5.7
2016-11-21T00:06:46.825Z,5.7
2016-11-21T00:07:07.430Z,5.7
2016-11-21T00:07:27.988Z,5.7
2016-11-21T00:07:48.538Z,5.6
2016-11-21T00:08:09.079Z,5.6
2016-11-21T00:08:29.643Z,5.7
2016-11-21T00:08:50.177Z,5.7
2016-11-21T00:09:10.720Z,5.7
2016-11-21T00:09:31.306Z,5.7
2016-11-21T00:09:51.858Z,5.7
2016-11-21T00:10:12.468Z,5.7
2016-11-21T00:10:33.057Z,5.7
2016-11-21T00:10:53.604Z,5.7
2016-11-21T00:11:14.167Z,5.7
2016-11-21T00:11:34.725Z,5.7
2016-11-21T00:11:55.306Z,5.7
2016-11-21T00:12:15.848Z,5.7
2016-11-21T00:12:36.389Z,5.7
2016-11-21T00:12:56.924Z,5.7
2016-11-21T00:13:17.501Z,5.7
2016-11-21T00:13:38.051Z,5.7
2016-11-21T00:13:58.584Z,5.6
2016-11-21T00:14:19.173Z,5.8
2016-11-21T00:14:39.750Z,5.7
2016-11-21T00:15:00.312Z,5.8
2016-11-21T00:15:20.898Z,5.8
2016-11-21T00:15:41.455Z,5.8
2016-11-21T00:16:01.998Z,5.8
2016-11-21T00:16:22.529Z,5.7
2016-11-21T00:16:43.106Z,5.8
2016-11-21T00:17:03.671Z,5.8
2016-11-21T00:17:24.215Z,5.8
2016-11-21T00:17:44.781Z,5.8
2016-11-21T00:18:05.331Z,5.8
2016-11-21T00:18:25.884Z,5.8
2016-11-21T00:18:46.445Z,5.7
2016-11-21T00:19:06.979Z,5.7
2016-11-21T00:19:27.526Z,5.6
2016-11-21T00:19:48.061Z,5.8
2016-11-21T00:20:08.599Z,5.7
2016-11-21T00:20:29.163Z,5.7
2016-11-21T00:20:49.714Z,5.7
2016-11-21T00:21:10.249Z,5.8
2016-11-21T00:21:30.795Z,5.6
2016-11-21T00:21:51.327Z,5.8
2016-11-21T00:22:11.865Z,5.7
2016-11-21T00:22:32.399Z,5.7
2016-11-21T00:22:52.949Z,5.7
2016-11-21T00:23:13.568Z,5.7
2016-11-21T00:23:34.162Z,5.8
2016-11-21T00:23:54.726Z,5.8
2016-11-21T00:24:15.296Z,5.7
2016-11-21T00:24:35.854Z,5.7
2016-11-21T00:24:56.395Z,5.7
2016-11-21T00:25:16.957Z,5.7
2016-11-21T00:25:37.529Z,5.8
2016-11-21T00:25:58.069Z,5.8
2016-11-21T00:26:18.599Z,5.8
2016-11-21T00:26:39.155Z,5.7
2016-11-21T00:26:59.703Z,5.8
2016-11-21T00:27:20.245Z,5.8
2016-11-21T00:27:40.813Z,5.8
2016-11-21T00:28:01.363Z,5.9
2016-11-21T00:28:21.957Z,5.9
2016-11-21T00:28:42.491Z,6
2016-11-21T00:29:03.042Z,6
2016-11-21T00:29:23.603Z,6
2016-11-21T00:29:44.142Z,6
2016-11-21T00:30:04.725Z,6.1
2016-11-21T00:30:25.273Z,6
2016-11-21T00:30:45.832Z,6.1
2016-11-21T00:31:06.404Z,6.1
2016-11-21T00:31:26.968Z,6
2016-11-21T00:31:47.526Z,6.2
2016-11-21T00:32:08.075Z,6.2
2016-11-21T00:32:28.648Z,6.1
2016-11-21T00:32:49.181Z,6.2
2016-11-21T00:33:09.730Z,6.2
2016-11-21T00:33:30.269Z,6.3
2016-11-21T00:33:50.838Z,6.3
2016-11-21T00:34:11.415Z,6.3
2016-11-21T00:34:31.967Z,6.3
2016-11-21T00:34:52.511Z,6.2
2016-11-21T00:35:13.076Z,6.3
2016-11-21T00:35:33.664Z,6.4
2016-11-21T00:35:54.195Z,6.3
2016-11-21T00:36:14.751Z,6.3
2016-11-21T00:36:35.292Z,6.3
2016-11-21T00:36:55.860Z,6.3
2016-11-21T00:37:16.413Z,6.3
2016-11-21T00:37:36.952Z,6.3
2016-11-21T00:37:57.501Z,6.4
2016-11-21T00:38:18.042Z,6.4
2016-11-21T00:38:38.583Z,6.5
2016-11-21T00:38:59.129Z,6.4
2016-11-21T00:39:19.677Z,6.4
2016-11-21T00:39:40.224Z,6.4
2016-11-21T00:40:00.786Z,6.4
2016-11-21T00:40:21.330Z,6.4
2016-11-21T00:40:41.879Z,6.4
2016-11-21T00:41:02.431Z,6.5
2016-11-21T00:41:22.973Z,6.4
2016-11-21T00:41:43.509Z,6.4
2016-11-21T00:42:04.079Z,6.4
2016-11-21T00:42:24.634Z,6.5
2016-11-21T00:42:45.190Z,6.4
2016-11-21T00:43:05.762Z,6.5
2016-11-21T00:43:26.325Z,6.5
2016-11-21T00:43:46.898Z,6.5
2016-11-21T00:44:07.439Z,6.5
2016-11-21T00:44:28.006Z,6.5
2016-11-21T00:44:48.558Z,6.5
2016-11-21T00:45:09.132Z,6.5
2016-11-21T00:45:29.705Z,6.5
2016-11-21T00:45:50.251Z,6.5
2016-11-21T00:46:10.787Z,6.5
2016-11-21T00:46:31.345Z,6.5
2016-11-21T00:46:51.908Z,6.5
2016-11-21T00:47:12.534Z,6.5
2016-11-21T00:47:33.118Z,6.4
2016-11-21T00:47:53.654Z,6.5
2016-11-21T00:48:14.226Z,6.4
2016-11-21T00:48:34.791Z,6.5
2016-11-21T00:48:55.350Z,6.5
2016-11-21T00:49:15.906Z,6.4
2016-11-21T00:49:36.475Z,6.5
2016-11-21T00:49:57.018Z,6.4
2016-11-21T00:50:17.555Z,6.5
2016-11-21T00:50:38.111Z,6.5
2016-11-21T00:50:58.679Z,6.5
2016-11-21T00:51:19.271Z,6.5
2016-11-21T00:51:39.831Z,6.6
2016-11-21T00:52:00.363Z,6.5
2016-11-21T00:52:20.906Z,6.6
2016-11-21T00:52:41.440Z,6.6
2016-11-21T00:53:02.021Z,6.6
2016-11-21T00:53:22.615Z,6.5
2016-11-21T00:53:43.164Z,6.5
2016-11-21T00:54:03.712Z,6.5
2016-11-21T00:54:24.250Z,6.6
2016-11-21T00:54:44.801Z,6.5
2016-11-21T00:55:05.338Z,6.5
2016-11-21T00:55:25.930Z,6.6
2016-11-21T00:55:46.473Z,6.5
2016-11-21T00:56:07.044Z,6.6
2016-11-21T00:56:27.609Z,6.6
2016-11-21T00:56:48.161Z,6.5
2016-11-21T00:57:08.701Z,6.6
2016-11-21T00:57:29.236Z,6.6
2016-11-21T00:57:49.804Z,6.6
2016-11-21T00:58:10.340Z,6.6
2016-11-21T00:58:30.886Z,6.5
2016-11-21T00:58:51.453Z,6.5
2016-11-21T00:59:12.057Z,6.5
2016-11-21T00:59:32.611Z,6.5
2016-11-21T00:59:53.158Z,6.5
2016-11-21T01:00:14.656Z,6.6
2016-11-21T01:00:35.205Z,6.6
2016-11-21T01:00:55.774Z,6.5
2016-11-21T01:01:16.377Z,6.5
2016-11-21T01:01:36.957Z,6.6
2016-11-21T01:01:57.529Z,6.5
2016-11-21T01:02:18.088Z,6.5
2016-11-21T01:02:38.661Z,6.5
2016-11-21T01:02:59.205Z,6.5
2016-11-21T01:03:19.735Z,6.5
2016-11-21T01:03:40.303Z,6.5
2016-11-21T01:04:00.840Z,6.5
2016-11-21T01:04:21.408Z,6.5
2016-11-21T01:04:41.975Z,6.6
2016-11-21T01:05:02.581Z,6.5
2016-11-21T01:05:23.132Z,6.5
2016-11-21T01:05:43.695Z,6.5
2016-11-21T01:06:04.226Z,6.5
2016-11-21T01:06:24.801Z,6.5
2016-11-21T01:06:45.350Z,6.4
2016-11-21T01:07:05.892Z,6.4
2016-11-21T01:07:26.443Z,6.4
2016-11-21T01:07:46.993Z,6.4
2016-11-21T01:08:07.552Z,6.4
2016-11-21T01:08:28.078Z,6.5
2016-11-21T01:08:48.633Z,6.3
2016-11-21T01:09:09.195Z,6.3
2016-11-21T01:09:29.736Z,6.4
2016-11-21T01:09:50.292Z,6.3
2016-11-21T01:10:10.865Z,6.2
2016-11-21T01:10:31.417Z,6.2
2016-11-21T01:10:51.994Z,6.3
2016-11-21T01:11:12.539Z,6.3
2016-11-21T01:11:33.087Z,6.3
2016-11-21T01:11:53.648Z,6.2
2016-11-21T01:12:14.265Z,6.3
2016-11-21T01:12:34.808Z,6.3
2016-11-21T01:12:55.376Z,6.3
2016-11-21T01:13:15.953Z,6.3
2016-11-21T01:13:36.486Z,6.3
2016-11-21T01:13:57.031Z,6.3
2016-11-21T01:14:17.579Z,6.2
2016-11-21T01:14:38.133Z,6.2
2016-11-21T01:14:58.671Z,6.2
2016-11-21T01:15:19.243Z,6.3
2016-11-21T01:15:39.786Z,6.2
2016-11-21T01:16:00.352Z,6.2
2016-11-21T01:16:20.898Z,6.2
2016-11-21T01:16:41.451Z,6.2
2016-11-21T01:17:02.002Z,6.2
2016-11-21T01:17:22.576Z,6.2
2016-11-21T01:17:43.120Z,6.3
2016-11-21T01:18:03.684Z,6.3
2016-11-21T01:18:24.264Z,6.3
2016-11-21T01:18:44.798Z,6.3
2016-11-21T01:19:05.351Z,6.3
2016-11-21T01:19:25.902Z,6.3
2016-11-21T01:19:46.466Z,6.2
2016-11-21T01:20:07.012Z,6.3
2016-11-21T01:20:27.578Z,6.3
2016-11-21T01:20:48.141Z,6.3
2016-11-21T01:21:08.699Z,6.3
2016-11-21T01:21:29.264Z,6.3
2016-11-21T01:21:49.796Z,6.4
2016-11-21T01:22:10.351Z,6.3
2016-11-21T01:22:30.901Z,6.3
2016-11-21T01:22:51.442Z,6.3
2016-11-21T01:23:12.003Z,6.3
2016-11-21T01:23:32.607Z,6.3
2016-11-21T01:23:53.147Z,6.2
2016-11-21T01:24:13.691Z,6.3
2016-11-21T01:24:34.222Z,6.2
2016-11-21T01:24:54.768Z,6.3
2016-11-21T01:25:15.313Z,6.4
2016-11-21T01:25:35.899Z,6.4
2016-11-21T01:25:56.446Z,6.3
2016-11-21T01:26:17.033Z,6.3
2016-11-21T01:26:37.604Z,6.5
2016-11-21T01:26:58.157Z,6.4
2016-11-21T01:27:18.688Z,6.4
2016-11-21T01:27:39.220Z,6.4
2016-11-21T01:27:59.771Z,6.5
2016-11-21T01:28:20.303Z,6.5
2016-11-21T01:28:40.836Z,6.5
2016-11-21T01:29:01.385Z,6.6
2016-11-21T01:29:21.947Z,6.6
2016-11-21T01:29:42.494Z,6.6
2016-11-21T01:30:03.027Z,6.6
2016-11-21T01:30:23.558Z,6.6
2016-11-21T01:30:44.128Z,6.5
2016-11-21T01:31:04.679Z,6.5
2016-11-21T01:31:25.266Z,6.5
2016-11-21T01:31:45.860Z,6.5
2016-11-21T01:32:06.390Z,6.5
2016-11-21T01:32:26.926Z,6.6
2016-11-21T01:32:47.466Z,6.7
2016-11-21T01:33:08.009Z,6.7
2016-11-21T01:33:28.553Z,6.7
2016-11-21T01:33:49.093Z,6.6
2016-11-21T01:34:09.682Z,6.6
2016-11-21T01:34:30.253Z,6.7
2016-11-21T01:34:50.779Z,6.6
2016-11-21T01:35:11.327Z,6.7
2016-11-21T01:35:31.845Z,6.7
2016-11-21T01:35:52.392Z,6.6
2016-11-21T01:36:12.931Z,6.6
2016-11-21T01:36:33.481Z,6.7
2016-11-21T01:36:54.059Z,6.6
2016-11-21T01:37:14.594Z,6.6
2016-11-21T01:37:35.150Z,6.6
2016-11-21T01:37:55.700Z,6.6
2016-11-21T01:38:16.237Z,6.7
2016-11-21T01:38:36.797Z,6.5
2016-11-21T01:38:57.337Z,6.6
2016-11-21T01:39:17.913Z,6.5
2016-11-21T01:39:38.472Z,6.6
2016-11-21T01:39:59.025Z,6.6
2016-11-21T01:40:19.565Z,6.5
2016-11-21T01:40:40.150Z,6.5
2016-11-21T01:41:00.739Z,6.5
2016-11-21T01:41:21.275Z,6.5
2016-11-21T01:41:41.820Z,6.6
2016-11-21T01:42:02.367Z,6.6
2016-11-21T01:42:22.911Z,6.6
2016-11-21T01:42:43.513Z,6.6
2016-11-21T01:43:04.047Z,6.5
2016-11-21T01:43:24.672Z,6.5
2016-11-21T01:43:45.222Z,6.5
2016-11-21T01:44:05.782Z,6.5
2016-11-21T01:44:26.325Z,6.6
2016-11-21T01:44:46.901Z,6.4
2016-11-21T01:45:07.473Z,6.5
2016-11-21T01:45:28.034Z,6.5
2016-11-21T01:45:48.576Z,6.4
2016-11-21T01:46:09.121Z,6.4
2016-11-21T01:46:29.711Z,6.4
2016-11-21T01:46:50.253Z,6.5
2016-11-21T01:47:10.789Z,6.5
2016-11-21T01:47:31.350Z,6.4
2016-11-21T01:47:51.929Z,6.4
2016-11-21T01:48:12.526Z,6.4
2016-11-21T01:48:33.081Z,6.4
2016-11-21T01:48:53.645Z,6.4
2016-11-21T01:49:14.199Z,6.4
2016-11-21T01:49:34.742Z,6.4
2016-11-21T01:49:55.287Z,6.3
2016-11-21T01:50:15.857Z,6.4
2016-11-21T01:50:36.421Z,6.3
2016-11-21T01:50:56.987Z,6.4
2016-11-21T01:51:17.547Z,6.3
2016-11-21T01:51:38.081Z,6.3
2016-11-21T01:51:58.613Z,6.4
2016-11-21T01:52:19.162Z,6.3
2016-11-21T01:52:39.684Z,6.3
2016-11-21T01:53:00.225Z,6.3
2016-11-21T01:53:20.781Z,6.3
2016-11-21T01:53:41.325Z,6.3
2016-11-21T01:54:01.900Z,6.2
2016-11-21T01:54:22.450Z,6.3
2016-11-21T01:54:43.041Z,6.3
2016-11-21T01:55:03.589Z,6.2
2016-11-21T01:55:24.158Z,6.3
2016-11-21T01:55:44.707Z,6.3
2016-11-21T01:56:05.250Z,6.2
2016-11-21T01:56:25.785Z,6.3
2016-11-21T01:56:46.333Z,6.2
2016-11-21T01:57:06.881Z,6.2
2016-11-21T01:57:27.435Z,6.2
2016-11-21T01:57:47.962Z,6.2
2016-11-21T01:58:08.513Z,6.2
2016-11-21T01:58:29.088Z,6.3
2016-11-21T01:58:49.642Z,6.2
2016-11-21T01:59:10.183Z,6.2
2016-11-21T01:59:30.729Z,6.2
2016-11-21T01:59:51.292Z,6.2
2016-11-21T02:00:11.836Z,6.2
2016-11-21T02:00:32.391Z,6.2
2016-11-21T02:00:52.943Z,6.2
2016-11-21T02:01:13.481Z,6.3
2016-11-21T02:01:34.026Z,6.3
2016-11-21T02:01:54.623Z,6.2
2016-11-21T02:02:15.161Z,6.2
2016-11-21T02:02:35.725Z,6.2
2016-11-21T02:02:56.255Z,6.2
2016-11-21T02:03:16.812Z,6.3
2016-11-21T02:03:37.344Z,6.2
2016-11-21T02:03:57.921Z,6.3
2016-11-21T02:04:19.093Z,6.3
2016-11-21T02:04:39.688Z,6.3
2016-11-21T02:05:00.225Z,6.3
2016-11-21T02:05:20.775Z,6.3
2016-11-21T02:05:41.325Z,6.2
2016-11-21T02:06:01.879Z,6.3
2016-11-21T02:06:22.417Z,6.2
2016-11-21T02:06:42.953Z,6.4
2016-11-21T02:07:03.527Z,6.3
2016-11-21T02:07:24.101Z,6.3
2016-11-21T02:07:44.655Z,6.3
2016-11-21T02:08:05.211Z,6.3
2016-11-21T02:08:25.767Z,6.3
2016-11-21T02:08:46.294Z,6.3
2016-11-21T02:09:06.841Z,6.3
2016-11-21T02:09:27.396Z,6.3
2016-11-21T02:09:47.975Z,6.3
2016-11-21T02:10:08.536Z,6.4
2016-11-21T02:10:29.069Z,6.4
2016-11-21T02:10:49.610Z,6.3
2016-11-21T02:11:10.167Z,6.4
2016-11-21T02:11:30.736Z,6.4
2016-11-21T02:11:51.288Z,6.5
2016-11-21T02:12:11.836Z,6.4
2016-11-21T02:12:32.375Z,6.5
2016-11-21T02:12:52.989Z,6.5
2016-11-21T02:13:13.539Z,6.5
2016-11-21T02:13:34.084Z,6.5
2016-11-21T02:13:54.657Z,6.6
2016-11-21T02:14:15.203Z,6.6
2016-11-21T02:14:35.756Z,6.6
2016-11-21T02:14:56.298Z,6.5
2016-11-21T02:15:16.831Z,6.6
2016-11-21T02:15:37.410Z,6.5
2016-11-21T02:15:57.977Z,6.6
2016-11-21T02:16:18.539Z,6.6
2016-11-21T02:16:39.076Z,6.5
2016-11-21T02:16:59.608Z,6.5
2016-11-21T02:17:20.161Z,6.6
2016-11-21T02:17:40.696Z,6.6
2016-11-21T02:18:01.250Z,6.7
2016-11-21T02:18:21.796Z,6.6
2016-11-21T02:18:42.335Z,6.7
2016-11-21T02:19:02.873Z,6.6
2016-11-21T02:19:23.442Z,6.7
2016-11-21T02:19:44.024Z,6.7
2016-11-21T02:20:04.576Z,6.7
2016-11-21T02:20:25.131Z,6.7
2016-11-21T02:20:45.737Z,6.7
2016-11-21T02:21:06.275Z,6.7
2016-11-21T02:21:26.831Z,6.7
2016-11-21T02:21:47.406Z,6.7
2016-11-21T02:22:07.944Z,6.7
2016-11-21T02:22:28.497Z,6.7
2016-11-21T02:22:49.048Z,6.7
2016-11-21T02:23:09.611Z,6.7
2016-11-21T02:23:30.183Z,6.7
2016-11-21T02:23:50.741Z,6.7
2016-11-21T02:24:11.316Z,6.7
2016-11-21T02:24:31.862Z,6.7
2016-11-21T02:24:52.410Z,6.7
2016-11-21T02:25:12.980Z,6.7
2016-11-21T02:25:33.538Z,6.7
2016-11-21T02:25:54.087Z,6.7
2016-11-21T02:26:14.666Z,6.7
2016-11-21T02:26:35.200Z,6.7
2016-11-21T02:26:55.730Z,6.7
2016-11-21T02:27:16.269Z,6.8
2016-11-21T02:27:36.808Z,6.7
2016-11-21T02:27:57.379Z,6.8
2016-11-21T02:28:17.971Z,6.7
2016-11-21T02:28:38.539Z,6.7
2016-11-21T02:28:59.088Z,6.7
2016-11-21T02:29:19.613Z,6.7
2016-11-21T02:29:40.169Z,6.8
2016-11-21T02:30:00.733Z,6.8
2016-11-21T02:30:21.272Z,6.7
2016-11-21T02:30:41.824Z,6.7
2016-11-21T02:31:02.378Z,6.6
2016-11-21T02:31:22.982Z,6.7
2016-11-21T02:31:43.547Z,6.7
2016-11-21T02:32:04.090Z,6.7
2016-11-21T02:32:24.663Z,6.8
2016-11-21T02:32:45.239Z,6.7
2016-11-21T02:33:05.788Z,6.7
2016-11-21T02:33:26.352Z,6.7
2016-11-21T02:33:46.891Z,6.7
2016-11-21T02:34:07.451Z,6.8
2016-11-21T02:34:27.994Z,6.8
2016-11-21T02:34:48.548Z,6.8
2016-11-21T02:35:09.102Z,6.8
2016-11-21T02:35:29.646Z,6.8
2016-11-21T02:35:50.219Z,6.8
2016-11-21T02:36:10.798Z,6.8
2016-11-21T02:36:31.327Z,6.8
2016-11-21T02:36:51.903Z,6.8
2016-11-21T02:37:12.452Z,6.9
2016-11-21T02:37:33.017Z,6.9
2016-11-21T02:37:53.557Z,6.9
2016-11-21T02:38:14.121Z,6.8
2016-11-21T02:38:34.676Z,6.8
2016-11-21T02:38:55.228Z,6.8
2016-11-21T02:39:15.817Z,6.8
2016-11-21T02:39:36.381Z,6.9
2016-11-21T02:39:56.922Z,7
2016-11-21T02:40:17.508Z,6.9
2016-11-21T02:40:38.051Z,7
2016-11-21T02:40:58.618Z,6.8
2016-11-21T02:41:19.153Z,6.9
2016-11-21T02:41:39.731Z,6.9
2016-11-21T02:42:00.276Z,7
2016-11-21T02:42:20.808Z,6.9
2016-11-21T02:42:41.430Z,6.9
2016-11-21T02:43:01.994Z,7
2016-11-21T02:43:22.534Z,6.9
2016-11-21T02:43:43.082Z,6.9
2016-11-21T02:44:03.666Z,6.9
2016-11-21T02:44:24.196Z,6.9
2016-11-21T02:44:44.764Z,6.9
2016-11-21T02:45:05.318Z,7
2016-11-21T02:45:25.846Z,6.9
2016-11-21T02:45:46.391Z,6.9
2016-11-21T02:46:06.965Z,7
2016-11-21T02:46:27.526Z,7
2016-11-21T02:46:48.095Z,7
2016-11-21T02:47:08.642Z,7.1
2016-11-21T02:47:29.222Z,7.1
2016-11-21T02:47:49.786Z,7
2016-11-21T02:48:10.365Z,7
2016-11-21T02:48:30.906Z,7.1
2016-11-21T02:48:51.450Z,7
2016-11-21T02:49:12.020Z,7.1
2016-11-21T02:49:32.598Z,7.1
2016-11-21T02:49:53.169Z,7.1
2016-11-21T02:50:13.729Z,7.1
2016-11-21T02:50:34.289Z,7.1
2016-11-21T02:50:54.824Z,7.2
2016-11-21T02:51:15.370Z,7.2
2016-11-21T02:51:35.903Z,7.1
2016-11-21T02:51:56.454Z,7.1
2016-11-21T02:52:16.986Z,7.1
2016-11-21T02:52:37.534Z,7.2
2016-11-21T02:52:58.098Z,7.2
2016-11-21T02:53:18.645Z,7.2
2016-11-21T02:53:39.201Z,7.2
2016-11-21T02:53:59.771Z,7.3
2016-11-21T02:54:20.335Z,7.2
2016-11-21T02:54:40.918Z,7.2
2016-11-21T02:55:01.476Z,7.2
2016-11-21T02:55:22.040Z,7.2
2016-11-21T02:55:42.574Z,7.2
2016-11-21T02:56:03.153Z,7.3
2016-11-21T02:56:23.693Z,7.2
2016-11-21T02:56:44.257Z,7.2
2016-11-21T02:57:04.806Z,7.2
2016-11-21T02:57:25.348Z,7.3
2016-11-21T02:57:45.923Z,7.3
2016-11-21T02:58:06.458Z,7.2
2016-11-21T02:58:26.994Z,7.2
2016-11-21T02:58:47.585Z,7.3
2016-11-21T02:59:08.126Z,7.3
2016-11-21T02:59:28.728Z,7.2
2016-11-21T02:59:49.267Z,7.2
2016-11-21T03:00:09.813Z,7.3
2016-11-21T03:00:30.364Z,7.3
2016-11-21T03:00:50.915Z,7.2
2016-11-21T03:01:11.469Z,7.4
2016-11-21T03:01:32.052Z,7.3
2016-11-21T03:01:52.582Z,7.2
2016-11-21T03:02:13.141Z,7.2
2016-11-21T03:02:33.685Z,7.2
2016-11-21T03:02:54.214Z,7.2
2016-11-21T03:03:14.771Z,7.2
2016-11-21T03:03:35.352Z,7.3
2016-11-21T03:03:55.980Z,7.3
2016-11-21T03:04:16.533Z,7.3
2016-11-21T03:04:37.088Z,7.3
2016-11-21T03:04:57.637Z,7.4
2016-11-21T03:05:18.239Z,7.3
2016-11-21T03:05:38.798Z,7.4
2016-11-21T03:05:59.338Z,7.3
2016-11-21T03:06:19.877Z,7.4
2016-11-21T03:06:40.426Z,7.4
2016-11-21T03:07:01.007Z,7.4
2016-11-21T03:07:21.551Z,7.4
2016-11-21T03:07:42.125Z,7.4
2016-11-21T03:08:02.694Z,7.4
2016-11-21T03:08:23.248Z,7.4
2016-11-21T03:08:43.806Z,7.4
2016-11-21T03:09:04.361Z,7.4
2016-11-21T03:09:24.931Z,7.3
2016-11-21T03:09:45.505Z,7.3
2016-11-21T03:10:06.076Z,7.4
2016-11-21T03:10:26.657Z,7.4
2016-11-21T03:10:47.224Z,7.3
2016-11-21T03:11:07.771Z,7.3
2016-11-21T03:11:28.311Z,7.3
2016-11-21T03:11:48.880Z,7.3
2016-11-21T03:12:09.431Z,7.3
2016-11-21T03:12:29.968Z,7.4
2016-11-21T03:12:50.590Z,7.3
2016-11-21T03:13:11.136Z,7.3
2016-11-21T03:13:31.715Z,7.3
2016-11-21T03:13:52.279Z,7.3
2016-11-21T03:14:12.813Z,7.4
2016-11-21T03:14:33.394Z,7.3
2016-11-21T03:14:53.972Z,7.3
2016-11-21T03:15:14.565Z,7.3
2016-11-21T03:15:35.643Z,7.4
2016-11-21T03:15:56.235Z,7.3
2016-11-21T03:16:16.811Z,7.4
2016-11-21T03:16:37.374Z,7.4
2016-11-21T03:16:57.903Z,7.4
2016-11-21T03:17:18.445Z,7.3
2016-11-21T03:17:39.000Z,7.5
2016-11-21T03:17:59.545Z,7.4
2016-11-21T03:18:20.094Z,7.5
2016-11-21T03:18:40.695Z,7.4
2016-11-21T03:19:01.231Z,7.4
2016-11-21T03:19:21.776Z,7.5
2016-11-21T03:19:42.342Z,7.4
2016-11-21T03:20:02.918Z,7.5
2016-11-21T03:20:23.483Z,7.5
2016-11-21T03:20:44.019Z,7.5
2016-11-21T03:21:04.568Z,7.5
2016-11-21T03:21:25.104Z,7.5
2016-11-21T03:21:45.655Z,7.5
2016-11-21T03:22:06.265Z,7.6
2016-11-21T03:22:26.840Z,7.5
2016-11-21T03:22:47.387Z,7.5
2016-11-21T03:23:07.938Z,7.5
2016-11-21T03:23:28.458Z,7.5
2016-11-21T03:23:49.008Z,7.5
2016-11-21T03:24:09.580Z,7.5
2016-11-21T03:24:30.136Z,7.5
2016-11-21T03:24:50.683Z,7.5
2016-11-21T03:25:11.235Z,7.5
2016-11-21T03:25:31.794Z,7.5
2016-11-21T03:25:52.330Z,7.6
2016-11-21T03:26:12.893Z,7.5
2016-11-21T03:26:33.464Z,7.6
2016-11-21T03:26:54.015Z,7.5
2016-11-21T03:27:14.560Z,7.6
2016-11-21T03:27:35.130Z,7.6
2016-11-21T03:27:55.692Z,7.5
2016-11-21T03:28:16.238Z,7.5
2016-11-21T03:28:36.774Z,7.6
2016-11-21T03:28:57.345Z,7.5
2016-11-21T03:29:17.905Z,7.6
2016-11-21T03:29:38.469Z,7.6
2016-11-21T03:29:59.015Z,7.5
2016-11-21T03:30:19.595Z,7.5
2016-11-21T03:30:40.140Z,7.5
2016-11-21T03:31:00.697Z,7.6
2016-11-21T03:31:21.241Z,7.6
2016-11-21T03:31:41.771Z,7.6
2016-11-21T03:32:02.322Z,7.5
2016-11-21T03:32:22.870Z,7.6
2016-11-21T03:32:43.431Z,7.5
2016-11-21T03:33:03.974Z,7.5
2016-11-21T03:33:24.539Z,7.6
2016-11-21T03:33:45.116Z,7.5
2016-11-21T03:34:05.663Z,7.5
2016-11-21T03:34:26.212Z,7.5
2016-11-21T03:34:46.772Z,7.5
2016-11-21T03:35:07.333Z,7.5
2016-11-21T03:35:27.912Z,7.5
2016-11-21T03:35:48.468Z,7.6
2016-11-21T03:36:09.033Z,7.5
2016-11-21T03:36:29.621Z,7.5
2016-11-21T03:36:50.160Z,7.5
2016-11-21T03:37:10.683Z,7.6
2016-11-21T03:37:31.235Z,7.6
2016-11-21T03:37:51.807Z,7.5
2016-11-21T03:38:12.401Z,7.6
2016-11-21T03:38:32.968Z,7.5
2016-11-21T03:38:53.523Z,7.6
2016-11-21T03:39:14.078Z,7.5
2016-11-21T03:39:34.644Z,7.5
2016-11-21T03:39:55.168Z,7.5
2016-11-21T03:40:15.733Z,7.5
2016-11-21T03:40:36.294Z,7.5
2016-11-21T03:40:56.852Z,7.5
2016-11-21T03:41:17.414Z,7.5
2016-11-21T03:41:37.964Z,7.5
2016-11-21T03:41:58.531Z,7.5
2016-11-21T03:42:19.071Z,7.5
2016-11-21T03:42:39.665Z,7.5
2016-11-21T03:43:00.239Z,7.4
2016-11-21T03:43:20.816Z,7.5
2016-11-21T03:43:41.377Z,7.5
2016-11-21T03:44:01.931Z,7.5
2016-11-21T03:44:22.513Z,7.5
2016-11-21T03:44:43.061Z,7.4
2016-11-21T03:45:03.609Z,7.4
2016-11-21T03:45:24.217Z,7.3
2016-11-21T03:45:44.787Z,7.4
2016-11-21T03:46:05.329Z,7.3
2016-11-21T03:46:25.871Z,7.4
2016-11-21T03:46:46.451Z,7.3
2016-11-21T03:47:06.988Z,7.3
2016-11-21T03:47:27.531Z,7.3
2016-11-21T03:47:48.088Z,7.3
2016-11-21T03:48:08.638Z,7.4
2016-11-21T03:48:29.194Z,7.4
2016-11-21T03:48:49.738Z,7.4
2016-11-21T03:49:10.287Z,7.5
2016-11-21T03:49:30.855Z,7.4
2016-11-21T03:49:51.401Z,7.4
2016-11-21T03:50:11.981Z,7.4
2016-11-21T03:50:32.529Z,7.4
2016-11-21T03:50:53.078Z,7.5
2016-11-21T03:51:13.636Z,7.4
2016-11-21T03:51:34.173Z,7.5
2016-11-21T03:51:54.761Z,7.4
2016-11-21T03:52:15.315Z,7.3
2016-11-21T03:52:35.872Z,7.5
2016-11-21T03:52:56.439Z,7.4
2016-11-21T03:53:16.963Z,7.5
2016-11-21T03:53:37.530Z,7.4
2016-11-21T03:53:58.068Z,7.4
2016-11-21T03:54:18.639Z,7.5
2016-11-21T03:54:39.194Z,7.5
2016-11-21T03:54:59.736Z,7.4
2016-11-21T03:55:20.298Z,7.5
2016-11-21T03:55:40.839Z,7.5
2016-11-21T03:56:01.399Z,7.4
2016-11-21T03:56:21.976Z,7.4
2016-11-21T03:56:42.526Z,7.3
2016-11-21T03:57:03.087Z,7.4
2016-11-21T03:57:23.642Z,7.3
2016-11-21T03:57:44.213Z,7.4
2016-11-21T03:58:04.760Z,7.3
2016-11-21T03:58:25.302Z,7.3
2016-11-21T03:58:45.855Z,7.4
2016-11-21T03:59:06.391Z,7.2
2016-11-21T03:59:26.960Z,7.2
2016-11-21T03:59:47.516Z,7.2
2016-11-21T04:00:08.151Z,7.3
2016-11-21T04:00:28.715Z,7.2
2016-11-21T04:00:49.276Z,7.2
2016-11-21T04:01:09.837Z,7.3
2016-11-21T04:01:30.372Z,7.2
2016-11-21T04:01:50.951Z,7.2
2016-11-21T04:02:11.518Z,7.2
2016-11-21T04:02:32.200Z,7.2
2016-11-21T04:02:52.753Z,7.2
2016-11-21T04:03:13.319Z,7.2
2016-11-21T04:03:33.878Z,7.2
2016-11-21T04:03:54.415Z,7.1
2016-11-21T04:04:14.961Z,7.1
2016-11-21T04:04:35.530Z,7.2
2016-11-21T04:04:56.092Z,7.2
2016-11-21T04:05:16.640Z,7.1
2016-11-21T04:05:37.197Z,7.1
2016-11-21T04:05:57.899Z,7.1
2016-11-21T04:06:18.435Z,7.1
2016-11-21T04:06:38.980Z,7.1
2016-11-21T04:06:59.524Z,7.1
2016-11-21T04:07:20.087Z,7.1
2016-11-21T04:07:40.645Z,7
2016-11-21T04:08:01.179Z,7
2016-11-21T04:08:21.753Z,7
2016-11-21T04:08:42.296Z,7.1
2016-11-21T04:09:02.855Z,7.1
2016-11-21T04:09:23.403Z,7
2016-11-21T04:09:43.951Z,7.1
2016-11-21T04:10:04.499Z,7.1
2016-11-21T04:10:25.041Z,7
2016-11-21T04:10:45.610Z,7.1
2016-11-21T04:11:06.143Z,7
2016-11-21T04:11:26.697Z,7
2016-11-21T04:11:47.280Z,7.1
2016-11-21T04:12:07.850Z,7.1
2016-11-21T04:12:28.416Z,7.1
2016-11-21T04:12:48.969Z,7
2016-11-21T04:13:09.521Z,7.1
2016-11-21T04:13:30.091Z,7
2016-11-21T04:13:50.635Z,7.1
2016-11-21T04:14:11.176Z,7.1
2016-11-21T04:14:31.734Z,7.1
2016-11-21T04:14:52.275Z,7.1
2016-11-21T04:15:12.829Z,7.1
2016-11-21T04:15:33.375Z,7
2016-11-21T04:15:53.941Z,7.1
2016-11-21T04:16:14.478Z,7.1
2016-11-21T04:16:35.058Z,7.1
2016-11-21T04:16:55.612Z,7.1
2016-11-21T04:17:16.149Z,7.1
2016-11-21T04:17:36.698Z,7.2
2016-11-21T04:17:57.227Z,7.1
2016-11-21T04:18:17.781Z,7.2
2016-11-21T04:18:38.332Z,7.2
2016-11-21T04:18:58.881Z,7.2
2016-11-21T04:19:19.428Z,7.2
2016-11-21T04:19:39.971Z,7.2
2016-11-21T04:20:00.579Z,7.3
2016-11-21T04:20:21.127Z,7.3
2016-11-21T04:20:41.701Z,7.2
2016-11-21T04:21:02.261Z,7.2
2016-11-21T04:21:22.842Z,7.2
2016-11-21T04:21:43.428Z,7.3
2016-11-21T04:22:03.991Z,7.3
2016-11-21T04:22:24.528Z,7.3
2016-11-21T04:22:45.060Z,7.4
2016-11-21T04:23:05.610Z,7.3
2016-11-21T04:23:26.166Z,7.4
2016-11-21T04:23:46.724Z,7.4
2016-11-21T04:24:07.286Z,7.3
2016-11-21T04:24:27.831Z,7.3
2016-11-21T04:24:48.455Z,7.3
2016-11-21T04:25:09.019Z,7.4
2016-11-21T04:25:29.606Z,7.4
2016-11-21T04:25:50.158Z,7.4
2016-11-21T04:26:10.701Z,7.3
2016-11-21T04:26:31.290Z,7.3
2016-11-21T04:26:51.852Z,7.4
2016-11-21T04:27:12.405Z,7.4
2016-11-21T04:27:32.979Z,7.3
2016-11-21T04:27:53.522Z,7.4
2016-11-21T04:28:14.098Z,7.3
2016-11-21T04:28:34.630Z,7.3
2016-11-21T04:28:55.185Z,7.4
2016-11-21T04:29:15.719Z,7.2
2016-11-21T04:29:36.266Z,7.3
2016-11-21T04:29:56.801Z,7.3
2016-11-21T04:30:17.351Z,7.2
2016-11-21T04:30:37.896Z,7.3
2016-11-21T04:30:58.510Z,7.3
2016-11-21T04:31:19.076Z,7.2
2016-11-21T04:31:39.614Z,7.2
2016-11-21T04:32:00.166Z,7.2
2016-11-21T04:32:20.741Z,7.2
2016-11-21T04:32:41.321Z,7.2
2016-11-21T04:33:01.880Z,7.3
2016-11-21T04:33:22.432Z,7.3
2016-11-21T04:33:42.988Z,7.3
2016-11-21T04:34:03.532Z,7.2
2016-11-21T04:34:24.077Z,7.3
2016-11-21T04:34:44.623Z,7.3
2016-11-21T04:35:05.186Z,7.4
2016-11-21T04:35:25.724Z,7.4
2016-11-21T04:35:46.309Z,7.3
2016-11-21T04:36:06.864Z,7.3
2016-11-21T04:36:27.409Z,7.4
2016-11-21T04:36:47.954Z,7.3
2016-11-21T04:37:08.496Z,7.3
2016-11-21T04:37:29.033Z,7.3
2016-11-21T04:37:49.609Z,7.2
2016-11-21T04:38:10.169Z,7.4
2016-11-21T04:38:30.719Z,7.3
2016-11-21T04:38:51.279Z,7.4
2016-11-21T04:39:11.823Z,7.3
2016-11-21T04:39:32.390Z,7.2
2016-11-21T04:39:52.927Z,7.2
2016-11-21T04:40:13.504Z,7.3
2016-11-21T04:40:34.061Z,7.3
2016-11-21T04:40:54.598Z,7.2
2016-11-21T04:41:15.155Z,7.2
2016-11-21T04:41:35.705Z,7.2
2016-11-21T04:41:56.242Z,7.2
2016-11-21T04:42:16.781Z,7.2
2016-11-21T04:42:37.346Z,7.2
2016-11-21T04:42:57.896Z,7.2
2016-11-21T04:43:18.437Z,7.1
2016-11-21T04:43:39.005Z,7.2